METAR Data
IDs: Format: Raw Decoded Include TAF

Data at: 1715 UTC 21 Sep 2018

KMNZ 201935Z AUTO 19012G16KT 10SM TS SCT038 SCT050 SCT070 31/21 A2995 RMK AO2 LTG DSNT ALQS T03140210
KMNZ 201915Z AUTO 18012G16KT 10SM BKN036 BKN042 BKN050 31/22 A2995 RMK AO2 LTG DSNT SE T03080216
KMNZ 201855Z AUTO 19012KT 10SM BKN036 BKN044 BKN055 31/21 A2996 RMK AO2 LTG DSNT SE T03130212
KMNZ 201835Z AUTO 19013G18KT 7SM BKN034 BKN043 BKN055 31/22 A2997 RMK AO2 LTG DSNT SE T03120217
KMNZ 201815Z AUTO 17010KT 7SM SCT032 SCT040 31/22 A2997 RMK AO2 LTG DSNT SE AND S T03090217
KMNZ 201755Z AUTO 19011KT 7SM SCT032 SCT040 30/22 A2999 RMK AO2 T03010215 10306 20225
KMNZ 201735Z AUTO 18010KT 7SM BKN030 30/22 A2999 RMK AO2 LTG DSNT SE T02960218
KMNZ 201715Z AUTO 19011KT 7SM SCT032 30/21 A3000 RMK AO2 LTG DSNT SE T02950213
KMNZ 201655Z AUTO 16013KT 7SM SCT032 30/21 A3000 RMK AO2 T02990214
KMNZ 201635Z AUTO 19011G16KT 7SM SCT024 SCT028 29/21 A3001 RMK AO2 T02920211
KMNZ 201615Z AUTO 19011G16KT 7SM SCT022 SCT027 30/22 A3001 RMK AO2 T02950216
KMNZ 201555Z AUTO 20012KT 7SM CLR 28/22 A3002 RMK AO2 T02810222
KMNZ 201535Z AUTO 18009KT 7SM SCT017 27/23 A3002 RMK AO2 T02740229
KMNZ 201515Z AUTO 20009KT 7SM CLR 27/23 A3001 RMK AO2 T02690234
KMNZ 201455Z AUTO 18010KT 10SM SCT012 26/23 A3001 RMK AO2 T02640232
KMNZ 201435Z AUTO 18007KT 10SM CLR 26/24 A3000 RMK AO2 T02590236
KMNZ 201415Z AUTO 18007KT 10SM CLR 25/24 A2999 RMK AO2 T02540236
KMNZ 201355Z AUTO 19008KT 10SM CLR 25/24 A2999 RMK AO2 T02500236
KMNZ 201335Z AUTO 18006KT 10SM CLR 24/23 A2998 RMK AO2 T02380232
KMNZ 201315Z AUTO 18007KT 10SM CLR 23/23 A2998 RMK AO2 T02320232
KMNZ 201255Z AUTO 18005KT 10SM CLR 23/23 A2998 RMK AO2 T02260226
KMNZ 201235Z AUTO 18004KT 10SM CLR 23/23 A2997 RMK AO2 T02260226
KMNZ 201215Z AUTO 19006KT 10SM CLR 23/23 A2997 RMK AO2 T02250225
KMNZ 201155Z AUTO 19006KT 10SM CLR 23/23 A2997 RMK AO2 T02250225 10233 20223
KMNZ 201135Z AUTO 19007KT 10SM CLR 23/23 A2997 RMK AO2 T02250225
KMNZ 201115Z AUTO 17005KT 10SM CLR 23/23 A2995 RMK AO2 T02250225
KMNZ 201055Z AUTO 18005KT 10SM CLR 23/23 A2995 RMK AO2 T02250225
KMNZ 201035Z AUTO 19006KT 10SM CLR 23/23 A2995 RMK AO2 T02260226
KMNZ 201015Z AUTO 20006KT 10SM CLR 23/23 A2995 RMK AO2 T02250225
KMNZ 200955Z AUTO 22006KT 10SM CLR 23/23 A2996 RMK AO2 T02260226
KMNZ 200935Z AUTO 20006KT 10SM CLR 23/23 A2995 RMK AO2 T02280227
KMNZ 200915Z AUTO 20006KT 10SM CLR 23/23 A2997 RMK AO2 T02300225
KMNZ 200855Z AUTO 19005KT 10SM CLR 23/22 A2997 RMK AO2 T02300223
KMNZ 200835Z AUTO 19006KT 10SM CLR 23/22 A2997 RMK AO2 T02310218
KMNZ 200815Z AUTO 18006KT 10SM CLR 23/21 A2998 RMK AO2 T02320212
KMNZ 200755Z AUTO 19008KT 10SM CLR 23/21 A2998 RMK AO2 T02330210
KMNZ 200735Z AUTO 18006KT 10SM CLR 23/21 A2998 RMK AO2 T02300207
KMNZ 200715Z AUTO 18007KT 10SM CLR 23/21 A2998 RMK AO2 T02290206
KMNZ 200655Z AUTO 17006KT 10SM CLR 23/21 A2998 RMK AO2 T02290205
KMNZ 200635Z AUTO 17005KT 10SM CLR 23/21 A2998 RMK AO2 T02270206
KMNZ 200615Z AUTO 18005KT 10SM CLR 23/20 A2998 RMK AO2 T02280202
KMNZ 200555Z AUTO 17006KT 10SM CLR 23/20 A2998 RMK AO2 T02310203 10311 20231 403360208
KMNZ 200535Z AUTO 17006KT 10SM CLR 24/20 A2998 RMK AO2 T02370203